Time;durP1;ratioP1;P1;durP2;ratioP2;P2;SDS_P1;SDS_P2;PMS_P1;PMS_P2;Temp;Humidity;BMP_temperature;BMP_pressure;BME280_temperature;BME280_humidity;BME280_pressure;Samples;Min_cycle;Max_cycle;Signal;HPM_P1;HPM_P2
2022/07/19 00:01:38;;;;;;;4.70;4.30;;;;;;;;;;4960473;28;20238;-52
2022/07/19 00:04:05;;;;;;;4.38;3.88;;;;;;;;;;4966596;28;20747;-52
2022/07/19 00:06:31;;;;;;;5.10;4.22;;;;;;;;;;4962886;28;20257;-53
2022/07/19 00:08:57;;;;;;;4.18;3.63;;;;;;;;;;4974335;28;20245;-53
2022/07/19 00:11:24;;;;;;;6.65;4.65;;;;;;;;;;4971503;28;20237;-54
2022/07/19 00:13:50;;;;;;;6.43;4.15;;;;;;;;;;4970997;28;20257;-55
2022/07/19 00:16:16;;;;;;;5.03;4.18;;;;;;;;;;4970248;28;20732;-52
2022/07/19 00:18:44;;;;;;;4.47;4.00;;;;;;;;;;4967608;28;20310;-52
2022/07/19 00:21:10;;;;;;;5.85;5.00;;;;;;;;;;4973557;28;20261;-53
2022/07/19 00:23:37;;;;;;;4.85;4.43;;;;;;;;;;4967395;28;20231;-52
2022/07/19 00:26:03;;;;;;;7.55;4.85;;;;;;;;;;4963922;28;20741;-53
2022/07/19 00:28:32;;;;;;;4.72;3.85;;;;;;;;;;4971963;28;20236;-52
2022/07/19 00:30:59;;;;;;;5.38;4.80;;;;;;;;;;4972505;28;20235;-52
2022/07/19 00:33:25;;;;;;;4.40;4.00;;;;;;;;;;4974150;28;20244;-52
2022/07/19 00:35:53;;;;;;;8.20;4.03;;;;;;;;;;4970725;28;20242;-52
2022/07/19 00:38:19;;;;;;;6.38;4.35;;;;;;;;;;4971513;28;20242;-52
2022/07/19 00:40:46;;;;;;;8.05;4.10;;;;;;;;;;4965689;28;20238;-52
2022/07/19 00:43:12;;;;;;;4.72;4.28;;;;;;;;;;4972099;28;20237;-54
2022/07/19 00:45:39;;;;;;;6.75;4.75;;;;;;;;;;4958792;28;20234;-52
2022/07/19 00:48:05;;;;;;;4.38;3.97;;;;;;;;;;4958862;28;20239;-54
2022/07/19 00:50:32;;;;;;;4.32;3.83;;;;;;;;;;4961544;28;20238;-53
2022/07/19 00:53:01;;;;;;;4.10;3.70;;;;;;;;;;4959629;28;20246;-52
2022/07/19 00:55:28;;;;;;;10.02;4.72;;;;;;;;;;4972187;28;20317;-52
2022/07/19 00:57:55;;;;;;;6.55;3.50;;;;;;;;;;4968278;28;20234;-53
2022/07/19 01:00:22;;;;;;;7.85;4.45;;;;;;;;;;4981314;28;20716;-53
2022/07/19 01:02:48;;;;;;;4.53;3.53;;;;;;;;;;4970055;28;20234;-53
2022/07/19 01:05:14;;;;;;;4.53;3.75;;;;;;;;;;4962763;28;20732;-53
2022/07/19 01:07:41;;;;;;;3.97;3.58;;;;;;;;;;4967415;28;20587;-53
2022/07/19 01:10:10;;;;;;;6.45;4.50;;;;;;;;;;4961999;28;20238;-53
2022/07/19 01:12:37;;;;;;;7.43;4.05;;;;;;;;;;4969315;28;20237;-51
2022/07/19 01:15:12;;;;;;;7.55;3.75;;;;;;;;;;4969404;28;20234;-53
2022/07/19 01:17:38;;;;;;;5.65;4.35;;;;;;;;;;4963265;28;20249;-53
2022/07/19 01:20:05;;;;;;;5.80;3.67;;;;;;;;;;4963732;28;20235;-53
2022/07/19 01:22:33;;;;;;;4.63;3.22;;;;;;;;;;4969761;28;20258;-53
2022/07/19 01:24:59;;;;;;;3.70;3.22;;;;;;;;;;4977612;28;20234;-54
2022/07/19 01:27:26;;;;;;;4.13;3.72;;;;;;;;;;4971679;28;20249;-53
2022/07/19 01:29:52;;;;;;;3.45;3.10;;;;;;;;;;4973030;28;20238;-53
2022/07/19 01:32:18;;;;;;;4.55;3.67;;;;;;;;;;4969176;28;20796;-53
2022/07/19 01:34:45;;;;;;;3.67;3.35;;;;;;;;;;4960626;28;20230;-53
2022/07/19 01:37:11;;;;;;;3.78;3.38;;;;;;;;;;4954377;28;20249;-54
2022/07/19 01:39:39;;;;;;;3.30;3.00;;;;;;;;;;4960091;28;20238;-53
2022/07/19 01:42:05;;;;;;;5.40;3.03;;;;;;;;;;4960003;28;20243;-53
2022/07/19 01:44:31;;;;;;;6.53;3.58;;;;;;;;;;4971633;28;20234;-53
2022/07/19 01:46:58;;;;;;;4.65;3.15;;;;;;;;;;4968150;28;20246;-52
2022/07/19 01:49:24;;;;;;;3.58;3.28;;;;;;;;;;4971257;28;20238;-53
2022/07/19 01:51:50;;;;;;;3.75;3.28;;;;;;;;;;4956144;28;20243;-54
2022/07/19 01:54:18;;;;;;;3.50;3.20;;;;;;;;;;4964060;28;20336;-53
2022/07/19 01:56:45;;;;;;;3.88;3.30;;;;;;;;;;4963111;28;20241;-53
2022/07/19 01:59:12;;;;;;;5.20;3.65;;;;;;;;;;4959280;28;20294;-52
2022/07/19 02:01:38;;;;;;;4.22;2.90;;;;;;;;;;4963438;28;20712;-53
2022/07/19 02:04:04;;;;;;;5.90;3.40;;;;;;;;;;4959290;28;20326;-53
2022/07/19 02:06:31;;;;;;;4.97;3.20;;;;;;;;;;4961347;28;20313;-54
2022/07/19 02:08:57;;;;;;;7.05;2.70;;;;;;;;;;4961632;28;20253;-52
2022/07/19 02:14:09;;;;;;;5.15;2.90;;;;;;;;;;4968750;28;20249;-53
2022/07/19 02:16:36;;;;;;;3.13;2.83;;;;;;;;;;4964065;28;20253;-53
2022/07/19 02:19:02;;;;;;;3.60;2.47;;;;;;;;;;4961233;28;20249;-53
2022/07/19 02:21:28;;;;;;;5.93;3.45;;;;;;;;;;4961649;28;20287;-53
2022/07/19 02:23:55;;;;;;;3.58;2.55;;;;;;;;;;4963406;28;20238;-53
2022/07/19 02:26:21;;;;;;;4.80;3.33;;;;;;;;;;4951608;28;20329;-53
2022/07/19 02:28:48;;;;;;;3.40;3.10;;;;;;;;;;4967027;28;20245;-53
2022/07/19 02:31:15;;;;;;;3.13;2.75;;;;;;;;;;4964348;28;20239;-53
2022/07/19 02:33:42;;;;;;;3.42;2.90;;;;;;;;;;4976086;28;20230;-53
2022/07/19 02:36:08;;;;;;;4.72;2.95;;;;;;;;;;4945537;28;20779;-53
2022/07/19 02:38:34;;;;;;;3.40;3.10;;;;;;;;;;4966017;28;20641;-53
2022/07/19 02:41:01;;;;;;;3.03;2.72;;;;;;;;;;4962614;28;20257;-53
2022/07/19 02:43:27;;;;;;;3.83;3.22;;;;;;;;;;4967621;28;20234;-53
2022/07/19 02:45:54;;;;;;;3.88;2.83;;;;;;;;;;4964748;28;20234;-54
2022/07/19 02:48:22;;;;;;;3.70;2.88;;;;;;;;;;4968515;28;20230;-53
2022/07/19 02:50:48;;;;;;;3.50;3.20;;;;;;;;;;4964715;28;20242;-52
2022/07/19 02:53:14;;;;;;;4.38;3.30;;;;;;;;;;4967981;28;20886;-53
2022/07/19 02:55:41;;;;;;;4.10;3.05;;;;;;;;;;4968225;28;20227;-53
2022/07/19 02:58:07;;;;;;;3.65;3.00;;;;;;;;;;4961598;28;20239;-54
2022/07/19 03:00:33;;;;;;;3.85;3.33;;;;;;;;;;4968151;28;20241;-53
2022/07/19 03:03:43;;;;;;;4.13;3.47;;;;;;;;;;4962330;28;20235;-52
2022/07/19 03:05:48;;;;;;;4.32;3.55;;;;;;;;;;4958944;28;20325;-53
2022/07/19 03:08:15;;;;;;;3.50;3.20;;;;;;;;;;4971429;28;20232;-53
2022/07/19 03:10:41;;;;;;;4.28;3.30;;;;;;;;;;4961554;28;20686;-53
2022/07/19 03:13:08;;;;;;;4.60;3.83;;;;;;;;;;4971278;28;20230;-53
2022/07/19 03:15:35;;;;;;;4.97;3.65;;;;;;;;;;4965762;28;20314;-53
2022/07/19 03:18:02;;;;;;;5.32;3.40;;;;;;;;;;4965113;28;20238;-53
2022/07/19 03:20:28;;;;;;;4.50;3.80;;;;;;;;;;4964348;28;20231;-53
2022/07/19 03:22:56;;;;;;;6.07;4.50;;;;;;;;;;4953690;28;20235;-53
2022/07/19 03:25:22;;;;;;;4.88;3.40;;;;;;;;;;4958555;28;20242;-53
2022/07/19 03:27:49;;;;;;;4.40;4.00;;;;;;;;;;4959954;28;20258;-52
2022/07/19 03:30:15;;;;;;;3.45;3.15;;;;;;;;;;4962880;28;20235;-52
2022/07/19 03:32:41;;;;;;;6.90;4.13;;;;;;;;;;4971274;28;20314;-53
2022/07/19 03:35:08;;;;;;;4.95;3.60;;;;;;;;;;4966563;28;20737;-53
2022/07/19 03:37:34;;;;;;;3.53;3.20;;;;;;;;;;4960786;28;20611;-53
2022/07/19 03:40:03;;;;;;;4.60;3.50;;;;;;;;;;4969524;28;20355;-53
2022/07/19 03:42:29;;;;;;;5.40;4.10;;;;;;;;;;4970224;28;20226;-53
2022/07/19 03:44:56;;;;;;;4.10;3.70;;;;;;;;;;4963298;28;20325;-53
2022/07/19 03:47:22;;;;;;;4.35;3.70;;;;;;;;;;4961704;28;20246;-53
2022/07/19 03:49:48;;;;;;;4.68;3.42;;;;;;;;;;4968437;28;20327;-53
2022/07/19 03:52:14;;;;;;;4.32;3.40;;;;;;;;;;4968630;28;20234;-52
2022/07/19 03:54:41;;;;;;;4.95;3.33;;;;;;;;;;4973835;28;20233;-52
2022/07/19 03:57:08;;;;;;;4.68;3.45;;;;;;;;;;4957208;28;20615;-52
2022/07/19 03:59:35;;;;;;;3.33;3.00;;;;;;;;;;4969584;28;20239;-54
2022/07/19 04:02:01;;;;;;;4.28;3.50;;;;;;;;;;4967161;28;20713;-52
2022/07/19 04:04:27;;;;;;;4.82;3.47;;;;;;;;;;4948625;28;20241;-55
2022/07/19 04:06:54;;;;;;;3.40;3.10;;;;;;;;;;4942256;28;20243;-52
2022/07/19 04:09:20;;;;;;;3.47;3.20;;;;;;;;;;4946467;28;20227;-52
2022/07/19 04:11:46;;;;;;;3.88;3.15;;;;;;;;;;4969287;28;20234;-53
2022/07/19 04:14:14;;;;;;;5.82;3.20;;;;;;;;;;4968012;28;20235;-53
2022/07/19 04:16:40;;;;;;;5.28;3.60;;;;;;;;;;4970302;28;20234;-54
2022/07/19 04:19:07;;;;;;;5.93;4.43;;;;;;;;;;4967823;28;20246;-53
2022/07/19 04:21:33;;;;;;;6.00;3.78;;;;;;;;;;4959516;28;20239;-53
2022/07/19 04:24:00;;;;;;;3.90;3.35;;;;;;;;;;4962742;28;20242;-53
2022/07/19 04:26:26;;;;;;;5.57;4.07;;;;;;;;;;4964845;28;20234;-52
2022/07/19 04:28:52;;;;;;;4.60;3.90;;;;;;;;;;4969073;28;20256;-52
2022/07/19 04:31:20;;;;;;;7.65;3.92;;;;;;;;;;4971922;28;20238;-53
2022/07/19 04:33:46;;;;;;;7.03;4.32;;;;;;;;;;4969447;28;20579;-53
2022/07/19 04:36:12;;;;;;;3.63;2.88;;;;;;;;;;4973976;28;20728;-54
2022/07/19 04:38:39;;;;;;;5.53;3.35;;;;;;;;;;4973853;28;20735;-53
2022/07/19 04:41:05;;;;;;;5.93;3.38;;;;;;;;;;4964793;28;20239;-52
2022/07/19 04:43:32;;;;;;;6.15;3.22;;;;;;;;;;4963510;28;20233;-55
2022/07/19 04:45:59;;;;;;;6.57;3.55;;;;;;;;;;4964517;28;20245;-52
2022/07/19 04:48:27;;;;;;;5.93;3.47;;;;;;;;;;4970224;28;20235;-53
2022/07/19 04:50:53;;;;;;;7.63;4.10;;;;;;;;;;4972638;28;20235;-52
2022/07/19 04:53:20;;;;;;;4.85;3.60;;;;;;;;;;4964408;28;20238;-53
2022/07/19 04:55:46;;;;;;;2.72;2.53;;;;;;;;;;4967936;28;20229;-53
2022/07/19 04:58:12;;;;;;;3.80;2.63;;;;;;;;;;4968636;28;20309;-52
2022/07/19 05:00:39;;;;;;;5.22;2.97;;;;;;;;;;4958869;28;20234;-53
2022/07/19 05:03:06;;;;;;;3.83;2.97;;;;;;;;;;4967937;28;20239;-54
2022/07/19 05:05:33;;;;;;;7.05;3.33;;;;;;;;;;4966355;28;20289;-55
2022/07/19 05:08:02;;;;;;;4.88;3.45;;;;;;;;;;4966741;28;20234;-53
2022/07/19 05:10:29;;;;;;;8.02;3.63;;;;;;;;;;4968039;28;20233;-52
2022/07/19 05:12:55;;;;;;;3.17;2.65;;;;;;;;;;4970068;28;20238;-52
2022/07/19 05:15:21;;;;;;;3.15;2.72;;;;;;;;;;4976278;28;20246;-52
2022/07/19 05:17:48;;;;;;;3.67;2.70;;;;;;;;;;4965080;28;20235;-53
2022/07/19 05:20:15;;;;;;;4.60;3.33;;;;;;;;;;4966470;28;20234;-53
2022/07/19 05:22:43;;;;;;;3.42;3.10;;;;;;;;;;4966729;28;20296;-52
2022/07/19 05:25:10;;;;;;;4.43;2.85;;;;;;;;;;4969217;28;20243;-53
2022/07/19 05:27:37;;;;;;;4.65;3.85;;;;;;;;;;4967921;28;20290;-53
2022/07/19 05:30:03;;;;;;;4.57;3.40;;;;;;;;;;4962012;28;20235;-53
2022/07/19 05:32:30;;;;;;;6.72;3.15;;;;;;;;;;4971956;28;20242;-53
2022/07/19 05:34:56;;;;;;;3.97;3.40;;;;;;;;;;4960460;28;20239;-53
2022/07/19 05:37:22;;;;;;;5.82;3.35;;;;;;;;;;4969170;28;20362;-53
2022/07/19 05:39:50;;;;;;;3.15;2.85;;;;;;;;;;4966732;28;20226;-53
2022/07/19 05:42:16;;;;;;;4.38;2.50;;;;;;;;;;4965232;28;20234;-53
2022/07/19 05:44:43;;;;;;;8.07;2.92;;;;;;;;;;4966605;28;20278;-52
2022/07/19 05:47:09;;;;;;;4.15;2.63;;;;;;;;;;4965292;28;20255;-53
2022/07/19 05:49:35;;;;;;;3.20;2.90;;;;;;;;;;4972250;28;20233;-53
2022/07/19 05:52:02;;;;;;;5.75;2.85;;;;;;;;;;4975322;28;20234;-53
2022/07/19 05:54:28;;;;;;;4.93;3.08;;;;;;;;;;4965619;28;20231;-52
2022/07/19 05:56:56;;;;;;;3.85;2.50;;;;;;;;;;4965599;28;20235;-52
2022/07/19 05:59:22;;;;;;;3.13;2.83;;;;;;;;;;4963005;28;20231;-53
2022/07/19 06:01:48;;;;;;;4.80;3.97;;;;;;;;;;4964268;28;20230;-52
2022/07/19 06:04:15;;;;;;;6.38;3.92;;;;;;;;;;4961034;28;20237;-52
2022/07/19 06:06:41;;;;;;;7.53;3.63;;;;;;;;;;4970257;28;20238;-53
2022/07/19 06:09:11;;;;;;;4.40;2.97;;;;;;;;;;4960504;28;20244;-52
2022/07/19 06:11:38;;;;;;;5.38;3.20;;;;;;;;;;4967958;28;20226;-53
2022/07/19 06:14:06;;;;;;;4.90;3.45;;;;;;;;;;4968816;28;20736;-52
2022/07/19 06:16:32;;;;;;;4.07;2.60;;;;;;;;;;4957959;28;22012;-52
2022/07/19 06:18:59;;;;;;;6.93;3.08;;;;;;;;;;4948831;28;20242;-53
2022/07/19 06:21:25;;;;;;;3.35;2.75;;;;;;;;;;4949048;28;20644;-52
2022/07/19 06:23:51;;;;;;;5.55;4.25;;;;;;;;;;4968652;28;22418;-53
2022/07/19 06:26:18;;;;;;;3.63;3.20;;;;;;;;;;4971336;28;20237;-53
2022/07/19 06:28:44;;;;;;;4.80;3.00;;;;;;;;;;4966957;28;20238;-52
2022/07/19 06:31:12;;;;;;;4.30;3.90;;;;;;;;;;4966129;28;20241;-52
2022/07/19 06:33:39;;;;;;;3.53;2.90;;;;;;;;;;4962075;28;20256;-53
2022/07/19 06:36:06;;;;;;;6.68;3.15;;;;;;;;;;4962948;28;20234;-52
2022/07/19 06:38:32;;;;;;;4.53;2.85;;;;;;;;;;4966090;28;20226;-52
2022/07/19 06:40:59;;;;;;;5.55;3.42;;;;;;;;;;4955819;28;20235;-52
2022/07/19 06:43:25;;;;;;;5.30;3.05;;;;;;;;;;4967711;28;20237;-53
2022/07/19 06:45:51;;;;;;;5.13;3.53;;;;;;;;;;4964281;28;20237;-52
2022/07/19 06:48:19;;;;;;;5.30;3.25;;;;;;;;;;4958475;28;20234;-52
2022/07/19 06:50:45;;;;;;;4.15;2.55;;;;;;;;;;4966996;28;20451;-53
2022/07/19 06:53:12;;;;;;;3.10;2.80;;;;;;;;;;4966544;28;20253;-52
2022/07/19 06:55:38;;;;;;;6.80;2.95;;;;;;;;;;4961747;28;20241;-53
2022/07/19 06:58:04;;;;;;;5.15;3.08;;;;;;;;;;4963738;28;20245;-52
2022/07/19 07:00:31;;;;;;;6.18;3.25;;;;;;;;;;4954884;28;20692;-52
2022/07/19 07:02:57;;;;;;;5.60;4.55;;;;;;;;;;4966045;28;20249;-52
2022/07/19 07:05:25;;;;;;;3.80;3.47;;;;;;;;;;4967809;28;20231;-52
2022/07/19 07:07:53;;;;;;;3.45;2.85;;;;;;;;;;4974987;28;20252;-55
2022/07/19 07:10:20;;;;;;;5.38;2.63;;;;;;;;;;4960333;28;20617;-54
2022/07/19 07:12:46;;;;;;;4.00;2.60;;;;;;;;;;4967291;28;20332;-52
2022/07/19 07:15:13;;;;;;;3.05;2.67;;;;;;;;;;4975372;28;20290;-52
2022/07/19 07:17:39;;;;;;;3.08;2.25;;;;;;;;;;4972539;28;20304;-53
2022/07/19 07:20:07;;;;;;;4.72;3.25;;;;;;;;;;4968966;28;20231;-53
2022/07/19 07:22:35;;;;;;;2.63;2.42;;;;;;;;;;4974232;28;20718;-53
2022/07/19 07:25:01;;;;;;;5.40;3.08;;;;;;;;;;4965849;28;20241;-53
2022/07/19 07:27:27;;;;;;;3.78;2.58;;;;;;;;;;4968027;28;20234;-53
2022/07/19 07:29:54;;;;;;;5.90;3.00;;;;;;;;;;4964284;28;20246;-53
2022/07/19 07:32:20;;;;;;;4.18;2.75;;;;;;;;;;4970539;28;20237;-52
2022/07/19 07:34:47;;;;;;;5.65;2.92;;;;;;;;;;4962576;28;20234;-52
2022/07/19 07:37:13;;;;;;;3.22;2.00;;;;;;;;;;4971300;28;20240;-52
2022/07/19 07:39:41;;;;;;;7.57;3.10;;;;;;;;;;4975515;28;20630;-52
2022/07/19 07:42:07;;;;;;;3.22;2.28;;;;;;;;;;4970405;28;20235;-51
2022/07/19 07:44:34;;;;;;;3.25;2.75;;;;;;;;;;4971010;28;20237;-52
2022/07/19 07:47:00;;;;;;;3.05;2.30;;;;;;;;;;4949791;28;20247;-52
2022/07/19 07:49:27;;;;;;;4.03;2.58;;;;;;;;;;4960552;28;20234;-53
2022/07/19 07:51:53;;;;;;;9.13;2.88;;;;;;;;;;4971700;28;20230;-53
2022/07/19 07:54:20;;;;;;;5.15;3.03;;;;;;;;;;4963109;28;20237;-53
2022/07/19 07:56:47;;;;;;;6.88;3.47;;;;;;;;;;4961779;28;20349;-51
2022/07/19 07:59:14;;;;;;;5.07;2.85;;;;;;;;;;4960091;28;20240;-52
2022/07/19 08:01:42;;;;;;;6.40;3.47;;;;;;;;;;4950859;28;20235;-55
2022/07/19 08:04:09;;;;;;;3.65;3.28;;;;;;;;;;4946778;28;20241;-52
2022/07/19 08:06:35;;;;;;;5.45;3.13;;;;;;;;;;4957762;28;20244;-54
2022/07/19 08:09:02;;;;;;;6.75;2.83;;;;;;;;;;4963873;28;20245;-52
2022/07/19 08:11:28;;;;;;;3.78;2.90;;;;;;;;;;4962763;28;20270;-52
2022/07/19 08:13:56;;;;;;;5.43;3.05;;;;;;;;;;4963586;28;20229;-51
2022/07/19 08:16:22;;;;;;;3.33;2.97;;;;;;;;;;4961688;28;20242;-52
2022/07/19 08:18:48;;;;;;;5.82;4.40;;;;;;;;;;4961555;28;20255;-52
2022/07/19 08:21:15;;;;;;;4.93;4.20;;;;;;;;;;4974625;28;20242;-52
2022/07/19 08:23:41;;;;;;;4.05;3.65;;;;;;;;;;4972993;28;20229;-52
2022/07/19 08:26:08;;;;;;;5.93;4.93;;;;;;;;;;4963616;28;20238;-53
2022/07/19 08:28:34;;;;;;;5.32;3.78;;;;;;;;;;4971623;28;20238;-52
2022/07/19 08:31:02;;;;;;;5.88;2.75;;;;;;;;;;4955936;28;20236;-52
2022/07/19 08:33:29;;;;;;;3.25;2.58;;;;;;;;;;4971739;28;20230;-52
2022/07/19 08:35:55;;;;;;;4.22;3.30;;;;;;;;;;4976140;28;20750;-55
2022/07/19 08:38:21;;;;;;;8.00;3.10;;;;;;;;;;4967495;28;20388;-53
2022/07/19 08:40:51;;;;;;;4.30;3.05;;;;;;;;;;4977216;28;20231;-52
2022/07/19 08:43:20;;;;;;;4.97;2.40;;;;;;;;;;4962768;28;20741;-53
2022/07/19 08:45:47;;;;;;;5.43;3.08;;;;;;;;;;4960879;28;20289;-53
2022/07/19 08:48:15;;;;;;;5.05;3.08;;;;;;;;;;4962586;28;20731;-51
2022/07/19 08:50:42;;;;;;;5.65;3.05;;;;;;;;;;4955754;28;20230;-53
2022/07/19 08:53:08;;;;;;;4.60;3.13;;;;;;;;;;4964098;28;20234;-51
2022/07/19 08:55:34;;;;;;;3.70;2.20;;;;;;;;;;4957357;28;20262;-51
2022/07/19 08:58:01;;;;;;;2.60;2.40;;;;;;;;;;4964015;28;20238;-52
2022/07/19 09:00:28;;;;;;;5.28;2.95;;;;;;;;;;4958497;28;20231;-52
2022/07/19 09:02:55;;;;;;;7.07;2.45;;;;;;;;;;4961480;28;20242;-51
2022/07/19 09:05:22;;;;;;;2.80;2.53;;;;;;;;;;4967029;28;20234;-52
2022/07/19 09:08:03;;;;;;;3.55;2.13;;;;;;;;;;4968059;28;20532;-53
2022/07/19 09:10:29;;;;;;;6.25;2.92;;;;;;;;;;4975631;28;20236;-53
2022/07/19 09:13:00;;;;;;;6.28;2.50;;;;;;;;;;4980078;28;20246;-52
2022/07/19 09:15:43;;;;;;;4.63;2.85;;;;;;;;;;4964439;28;20244;-51
2022/07/19 09:18:11;;;;;;;4.07;2.20;;;;;;;;;;4972658;28;20306;-51
2022/07/19 09:20:41;;;;;;;4.43;2.47;;;;;;;;;;4957131;28;20246;-51
2022/07/19 09:23:07;;;;;;;3.50;2.85;;;;;;;;;;4958805;28;20234;-52
2022/07/19 09:25:38;;;;;;;2.92;2.63;;;;;;;;;;4961674;28;20742;-51
2022/07/19 09:28:04;;;;;;;6.85;5.22;;;;;;;;;;4960182;28;20730;-52
2022/07/19 09:30:36;;;;;;;6.65;3.50;;;;;;;;;;4962019;28;20238;-51
2022/07/19 09:33:10;;;;;;;3.67;2.95;;;;;;;;;;4954129;28;20576;-52
2022/07/19 09:35:37;;;;;;;2.45;2.25;;;;;;;;;;4960060;28;20234;-53
2022/07/19 09:38:15;;;;;;;6.70;2.70;;;;;;;;;;4975887;28;20257;-52
2022/07/19 09:40:42;;;;;;;3.30;3.10;;;;;;;;;;4949758;28;20314;-53
2022/07/19 09:43:08;;;;;;;3.83;3.53;;;;;;;;;;4962608;28;20243;-52
2022/07/19 09:45:34;;;;;;;5.05;4.22;;;;;;;;;;4957964;28;20728;-52
2022/07/19 09:48:03;;;;;;;13.93;4.07;;;;;;;;;;4975343;28;20273;-53
2022/07/19 09:50:30;;;;;;;6.40;3.40;;;;;;;;;;4954597;28;20239;-52
2022/07/19 09:52:58;;;;;;;3.42;3.13;;;;;;;;;;4963727;28;20252;-52
2022/07/19 09:55:26;;;;;;;4.18;2.80;;;;;;;;;;4956364;28;20240;-52
2022/07/19 09:57:52;;;;;;;6.95;3.90;;;;;;;;;;4953340;28;20242;-51
2022/07/19 10:00:20;;;;;;;3.28;2.25;;;;;;;;;;4958393;28;20235;-52
2022/07/19 10:02:48;;;;;;;5.40;2.53;;;;;;;;;;4980629;28;20806;-52
2022/07/19 10:05:15;;;;;;;2.03;1.83;;;;;;;;;;4967370;28;20245;-51
2022/07/19 10:07:41;;;;;;;5.53;2.75;;;;;;;;;;4974909;28;20830;-51
2022/07/19 10:10:10;;;;;;;3.47;2.60;;;;;;;;;;4963247;28;20226;-51
2022/07/19 10:12:38;;;;;;;2.65;2.20;;;;;;;;;;4961054;28;20731;-52
2022/07/19 10:15:05;;;;;;;6.13;2.90;;;;;;;;;;4955750;28;20230;-52
2022/07/19 10:17:34;;;;;;;2.50;2.30;;;;;;;;;;4963950;28;20234;-52
2022/07/19 10:20:01;;;;;;;3.38;2.67;;;;;;;;;;4955912;28;20243;-52
2022/07/19 10:22:28;;;;;;;5.25;2.72;;;;;;;;;;4962529;28;20234;-51
2022/07/19 10:24:55;;;;;;;2.67;2.47;;;;;;;;;;4952358;28;20769;-52
2022/07/19 10:27:39;;;;;;;3.63;2.60;;;;;;;;;;4960882;28;20234;-51
2022/07/19 10:30:26;;;;;;;2.97;2.40;;;;;;;;;;4961152;28;20231;-53
2022/07/19 10:32:55;;;;;;;2.72;2.00;;;;;;;;;;4954792;28;20696;-53
2022/07/19 10:35:22;;;;;;;2.75;2.17;;;;;;;;;;4962463;28;20238;-51
2022/07/19 10:37:49;;;;;;;5.60;2.30;;;;;;;;;;4969537;28;20244;-53
2022/07/19 10:40:35;;;;;;;3.80;2.78;;;;;;;;;;4968872;28;20238;-53
2022/07/19 10:43:05;;;;;;;3.20;2.60;;;;;;;;;;4956708;28;20238;-52
2022/07/19 10:45:32;;;;;;;3.92;2.50;;;;;;;;;;4961765;28;20238;-52
2022/07/19 10:48:04;;;;;;;4.18;2.25;;;;;;;;;;4959477;28;20837;-51
2022/07/19 10:50:44;;;;;;;3.55;2.05;;;;;;;;;;4977908;28;20229;-51
2022/07/19 10:53:10;;;;;;;2.42;2.15;;;;;;;;;;4962231;28;20230;-52
2022/07/19 10:55:36;;;;;;;3.55;2.10;;;;;;;;;;4973292;28;20231;-53
2022/07/19 10:58:10;;;;;;;5.85;5.20;;;;;;;;;;4976665;28;20292;-52
2022/07/19 11:00:42;;;;;;;4.55;2.47;;;;;;;;;;4973468;28;20229;-52
2022/07/19 11:03:29;;;;;;;3.22;2.30;;;;;;;;;;4971813;28;20234;-52
2022/07/19 11:05:57;;;;;;;3.28;2.30;;;;;;;;;;4961714;28;20253;-52
2022/07/19 11:08:31;;;;;;;1.85;1.73;;;;;;;;;;4973437;28;20238;-52
2022/07/19 11:11:02;;;;;;;2.50;2.30;;;;;;;;;;4963753;28;20766;-52
2022/07/19 11:13:29;;;;;;;2.67;2.47;;;;;;;;;;4963046;28;20244;-52
2022/07/19 11:15:55;;;;;;;3.33;1.73;;;;;;;;;;4977152;28;20262;-53
2022/07/19 11:18:22;;;;;;;4.88;2.25;;;;;;;;;;4972579;28;20238;-53
2022/07/19 11:20:50;;;;;;;2.35;2.15;;;;;;;;;;4967977;28;20233;-51
2022/07/19 11:23:18;;;;;;;2.33;1.88;;;;;;;;;;4968222;28;20241;-52
2022/07/19 11:25:46;;;;;;;3.53;2.75;;;;;;;;;;4967693;28;20245;-52
2022/07/19 11:28:20;;;;;;;5.00;2.90;;;;;;;;;;4971668;28;20230;-52
2022/07/19 11:30:46;;;;;;;3.08;1.98;;;;;;;;;;4968713;28;20232;-52
2022/07/19 11:33:16;;;;;;;4.28;3.08;;;;;;;;;;4964944;28;20343;-52
2022/07/19 11:35:54;;;;;;;2.75;2.38;;;;;;;;;;4965537;28;20230;-52
2022/07/19 11:38:20;;;;;;;2.75;2.20;;;;;;;;;;4964667;28;20727;-51
2022/07/19 11:40:46;;;;;;;3.35;2.08;;;;;;;;;;4968331;28;20313;-52
2022/07/19 11:43:13;;;;;;;2.78;2.20;;;;;;;;;;4943400;28;20234;-52
2022/07/19 11:45:43;;;;;;;2.10;1.90;;;;;;;;;;4962258;28;20316;-52
2022/07/19 11:48:09;;;;;;;2.90;2.70;;;;;;;;;;4974486;28;20229;-51
2022/07/19 11:50:36;;;;;;;4.30;2.10;;;;;;;;;;4965195;28;20230;-52
2022/07/19 11:53:03;;;;;;;2.20;2.00;;;;;;;;;;4959565;28;20328;-51
2022/07/19 11:55:34;;;;;;;2.85;1.75;;;;;;;;;;4961504;28;20235;-51
2022/07/19 11:58:06;;;;;;;1.85;1.75;;;;;;;;;;4971594;28;20233;-51
2022/07/19 12:00:32;;;;;;;5.28;2.58;;;;;;;;;;4960310;28;20716;-52
2022/07/19 12:03:03;;;;;;;2.60;2.40;;;;;;;;;;4956039;28;20234;-52
2022/07/19 12:05:30;;;;;;;2.58;2.38;;;;;;;;;;4955527;28;20243;-52
2022/07/19 12:07:59;;;;;;;3.38;2.63;;;;;;;;;;4944613;28;20264;-52
2022/07/19 12:10:37;;;;;;;3.15;2.42;;;;;;;;;;4958887;28;20229;-52
2022/07/19 12:13:04;;;;;;;2.22;2.00;;;;;;;;;;4949277;28;20770;-52
2022/07/19 12:15:47;;;;;;;4.15;2.30;;;;;;;;;;4955403;28;20253;-52
2022/07/19 12:18:14;;;;;;;7.50;2.92;;;;;;;;;;4953583;28;20296;-52
2022/07/19 12:20:40;;;;;;;7.57;2.80;;;;;;;;;;4954559;28;20674;-52
2022/07/19 12:23:14;;;;;;;4.25;2.33;;;;;;;;;;4958636;28;20241;-52
2022/07/19 12:25:42;;;;;;;2.90;2.63;;;;;;;;;;4955100;28;20241;-51
2022/07/19 12:28:08;;;;;;;3.70;2.03;;;;;;;;;;4955706;28;20238;-52
2022/07/19 12:30:35;;;;;;;2.20;2.00;;;;;;;;;;4956297;28;20237;-51
2022/07/19 12:33:08;;;;;;;3.53;2.53;;;;;;;;;;4957399;28;20318;-52
2022/07/19 12:35:42;;;;;;;3.78;2.35;;;;;;;;;;4936326;28;20246;-52
2022/07/19 12:38:09;;;;;;;2.97;2.50;;;;;;;;;;4945752;28;20246;-52
2022/07/19 12:40:36;;;;;;;1.85;1.75;;;;;;;;;;4957846;28;20249;-52
2022/07/19 12:43:03;;;;;;;2.50;2.30;;;;;;;;;;4940795;28;20681;-52
2022/07/19 12:45:31;;;;;;;5.03;2.22;;;;;;;;;;4934950;28;20231;-53
2022/07/19 12:47:57;;;;;;;2.38;2.17;;;;;;;;;;4949278;28;20248;-52
2022/07/19 12:50:25;;;;;;;2.75;2.10;;;;;;;;;;4954914;28;20241;-51
2022/07/19 12:52:52;;;;;;;3.00;2.17;;;;;;;;;;4956552;28;20236;-52
2022/07/19 12:55:19;;;;;;;4.40;2.90;;;;;;;;;;4956677;28;20233;-51
2022/07/19 12:57:45;;;;;;;2.53;2.33;;;;;;;;;;4956882;28;20245;-52
2022/07/19 13:00:14;;;;;;;3.10;2.40;;;;;;;;;;4953326;28;20241;-53
2022/07/19 13:02:41;;;;;;;2.15;1.80;;;;;;;;;;4953899;28;20229;-52
2022/07/19 13:05:07;;;;;;;3.15;2.17;;;;;;;;;;4950573;28;20242;-55
2022/07/19 13:07:34;;;;;;;3.20;2.30;;;;;;;;;;4955382;28;20241;-52
2022/07/19 13:10:00;;;;;;;4.70;3.40;;;;;;;;;;4955405;28;20511;-51
2022/07/19 13:12:27;;;;;;;4.63;2.60;;;;;;;;;;4955047;28;20463;-52
2022/07/19 13:14:53;;;;;;;4.03;2.20;;;;;;;;;;4948971;28;20227;-51
2022/07/19 13:17:21;;;;;;;3.80;2.47;;;;;;;;;;4955887;28;20238;-52
2022/07/19 13:19:47;;;;;;;3.40;3.10;;;;;;;;;;4954339;28;20786;-52
2022/07/19 13:22:13;;;;;;;2.83;2.63;;;;;;;;;;4983859;28;20750;-52
2022/07/19 13:24:40;;;;;;;2.22;2.08;;;;;;;;;;4964738;28;20299;-52
2022/07/19 13:27:07;;;;;;;3.58;2.50;;;;;;;;;;4968418;28;20248;-52
2022/07/19 13:29:33;;;;;;;2.65;2.20;;;;;;;;;;4954541;28;20239;-52
2022/07/19 13:32:00;;;;;;;3.88;2.33;;;;;;;;;;4962954;28;20285;-52
2022/07/19 13:34:27;;;;;;;2.58;2.28;;;;;;;;;;4969197;28;21055;-52
2022/07/19 13:36:54;;;;;;;5.35;2.38;;;;;;;;;;4963232;28;20249;-52
2022/07/19 13:39:20;;;;;;;2.85;2.30;;;;;;;;;;4964669;28;20448;-51
2022/07/19 13:41:46;;;;;;;4.45;2.28;;;;;;;;;;4962683;28;20237;-53
2022/07/19 13:44:13;;;;;;;2.38;2.15;;;;;;;;;;4965095;28;20238;-52
2022/07/19 13:46:39;;;;;;;3.30;2.10;;;;;;;;;;4957539;28;20234;-53
2022/07/19 13:49:06;;;;;;;4.82;2.40;;;;;;;;;;4974349;28;20602;-53
2022/07/19 13:51:33;;;;;;;2.80;2.55;;;;;;;;;;4950131;28;20455;-52
2022/07/19 13:54:00;;;;;;;5.57;2.38;;;;;;;;;;4964620;28;20234;-52
2022/07/19 13:56:26;;;;;;;3.15;1.77;;;;;;;;;;4964237;28;20241;-52
2022/07/19 13:58:52;;;;;;;2.22;2.13;;;;;;;;;;4965404;28;20843;-51
2022/07/19 14:01:19;;;;;;;6.38;1.95;;;;;;;;;;4971380;23;20241;-51
2022/07/19 14:03:46;;;;;;;3.03;2.20;;;;;;;;;;4966782;28;20233;-51
2022/07/19 14:06:12;;;;;;;5.00;2.47;;;;;;;;;;4966311;28;20233;-51
2022/07/19 14:08:40;;;;;;;3.83;2.33;;;;;;;;;;4972640;28;20229;-51
2022/07/19 14:11:07;;;;;;;5.63;2.55;;;;;;;;;;4980384;28;20237;-51
2022/07/19 14:13:33;;;;;;;3.25;2.60;;;;;;;;;;4980416;28;20241;-51
2022/07/19 14:16:00;;;;;;;2.05;1.90;;;;;;;;;;4978873;28;20875;-51
2022/07/19 14:18:26;;;;;;;3.90;2.67;;;;;;;;;;4979423;28;20238;-51
2022/07/19 14:20:52;;;;;;;6.95;3.22;;;;;;;;;;4973145;28;20320;-51
2022/07/19 14:23:19;;;;;;;3.05;2.78;;;;;;;;;;4979721;28;20234;-52
2022/07/19 14:25:47;;;;;;;3.53;2.78;;;;;;;;;;4969631;28;20770;-51
2022/07/19 14:28:13;;;;;;;5.05;3.25;;;;;;;;;;4970818;28;20233;-51
2022/07/19 14:30:39;;;;;;;4.18;3.00;;;;;;;;;;4975489;28;20226;-51
2022/07/19 14:33:06;;;;;;;3.58;2.80;;;;;;;;;;4984965;28;20233;-51
2022/07/19 14:35:32;;;;;;;5.47;2.78;;;;;;;;;;4975920;28;20873;-53
2022/07/19 14:37:59;;;;;;;3.42;3.13;;;;;;;;;;4965059;28;20230;-52
2022/07/19 14:40:25;;;;;;;3.47;3.17;;;;;;;;;;4958333;28;20237;-51
2022/07/19 14:42:53;;;;;;;9.02;7.28;;;;;;;;;;4965762;28;20241;-51
2022/07/19 14:45:19;;;;;;;6.55;5.72;;;;;;;;;;4963205;28;20731;-51
2022/07/19 14:47:46;;;;;;;8.77;6.07;;;;;;;;;;4953507;28;20581;-51